Marlboro, Maryland
Current Conditions -  °F | °C
As of 5:58 AM on Sunday 26 Oct 2014 (Local Time) from KADW Reporting Station
Clear Clear  
Wind Chill: 60°   Ceiling: Unl
Heat Index: 60°   Visibility: 10mi
Dew Point: 37°   Wind: 9mph
Humidity: 43%   Direction: 290°WNW
Pressure: 29.73"   Gusts: NA
Location:  38.78°N, 76.7676°W
Report Text: KADW 260958Z AUTO 29008KT 10SM CLR 16/03 A2973 RMK AO2 SLP073 T01550028 $
Loading
Personal Weather Stations






























Interactive Weather Map
Tropical Storm Tracking
New forecast layout! Learn more

10-Day Weather Forecast

Advertisements
Track Severe Weather on mobile